Home > Products > Valid Products > TAF

000
FTUS46 KOTX 021122
TAFLWS
TAF
KLWS 021122Z 0212/0312 17005KT P6SM SCT150
     FM021700 30006KT P6SM SCT200
     FM030300 VRB03KT P6SM FEW100 SCT200=



000
FTUS46 KOTX 021122
TAFPUW
TAF
KPUW 021122Z 0212/0312 27006KT P6SM SCT200
     FM022300 33002KT P6SM SCT200
     FM030400 VRB02KT P6SM SCT100 SCT200=



000
FTUS46 KOTX 021122
TAFEAT
TAF
KEAT 021122Z 0212/0312 31010KT P6SM SCT150
     FM022200 11005KT P6SM FEW150
     FM030200 33005KT P6SM FEW100 SCT150=



000
FTUS46 KOTX 021122
TAFMWH
TAF
KMWH 021122Z 0212/0312 34010KT P6SM SCT150
     FM030300 VRB04KT P6SM FEW100 SCT150=



000
FTUS46 KOTX 021122
TAFGEG
TAF
KGEG 021122Z 0212/0312 27008KT P6SM FEW150 BKN200
     FM021500 29008KT P6SM FEW150 SCT200
     FM030200 VRB04KT P6SM FEW100 SCT200=



000
FTUS46 KOTX 021122
TAFSFF
TAF
KSFF 021122Z 0212/0312 VRB03KT P6SM FEW150 BKN200
     FM021500 29005KT P6SM FEW150 SCT200
     FM030200 VRB02KT P6SM FEW100 SCT200=



000
FTUS46 KOTX 021122
TAFCOE
TAF
KCOE 021122Z 0212/0312 22004KT P6SM FEW150 BKN200
     FM021700 29009KT P6SM FEW150 SCT200
     FM030200 08005KT P6SM SCT100 SCT200
      AMD LTD TO CLD AND VIS=



000
FTUS46 KOTX 021122
TAFSFF
TAF
KSFF 021122Z 0212/0312 VRB03KT P6SM FEW150 BKN200
     FM021500 29005KT P6SM FEW150 SCT200
     FM030200 VRB02KT P6SM FEW100 SCT200=



000
FTUS46 KOTX 021122
TAFCOE
TAF
KCOE 021122Z 0212/0312 22004KT P6SM FEW150 BKN200
     FM021700 29009KT P6SM FEW150 SCT200
     FM030200 08005KT P6SM SCT100 SCT200
      AMD LTD TO CLD AND VIS=



000
FTUS46 KOTX 021122
TAFEAT
TAF
KEAT 021122Z 0212/0312 31010KT P6SM SCT150
     FM022200 11005KT P6SM FEW150
     FM030200 33005KT P6SM FEW100 SCT150=



000
FTUS46 KOTX 021122
TAFLWS
TAF
KLWS 021122Z 0212/0312 17005KT P6SM SCT150
     FM021700 30006KT P6SM SCT200
     FM030300 VRB03KT P6SM FEW100 SCT200=



000
FTUS46 KOTX 021122
TAFGEG
TAF
KGEG 021122Z 0212/0312 27008KT P6SM FEW150 BKN200
     FM021500 29008KT P6SM FEW150 SCT200
     FM030200 VRB04KT P6SM FEW100 SCT200=



000
FTUS46 KOTX 021122
TAFPUW
TAF
KPUW 021122Z 0212/0312 27006KT P6SM SCT200
     FM022300 33002KT P6SM SCT200
     FM030400 VRB02KT P6SM SCT100 SCT200=



000
FTUS46 KOTX 021122
TAFMWH
TAF
KMWH 021122Z 0212/0312 34010KT P6SM SCT150
     FM030300 VRB04KT P6SM FEW100 SCT150=



000
FTUS46 KOTX 020520
TAFGEG
TAF
KGEG 020520Z 0206/0306 20011KT P6SM SCT150 BKN200
     FM021200 24006KT P6SM FEW150
     FM021900 28008KT P6SM FEW080
     FM030100 18003KT P6SM FEW150=



000
FTUS46 KOTX 020520
TAFMWH
TAF
KMWH 020520Z 0206/0306 30007KT P6SM FEW200
     FM030100 VRB04KT P6SM SKC=



000
FTUS46 KOTX 020520
TAFMWH
TAF
KMWH 020520Z 0206/0306 30007KT P6SM FEW200
     FM030100 VRB04KT P6SM SKC=



000
FTUS46 KOTX 020520
TAFEAT
TAF
KEAT 020520Z 0206/0306 30012KT P6SM SCT150
     FM021400 29006KT P6SM SKC
     FM022200 11005KT P6SM FEW150=



000
FTUS46 KOTX 020520
TAFSFF
TAF
KSFF 020520Z 0206/0306 25003KT P6SM FEW150
     FM030100 VRB03KT P6SM FEW150=



000
FTUS46 KOTX 020520
TAFLWS
TAF
KLWS 020520Z 0206/0306 VRB03KT P6SM FEW200=



000
FTUS46 KOTX 020520
TAFLWS
TAF
KLWS 020520Z 0206/0306 VRB03KT P6SM FEW200=



000
FTUS46 KOTX 020520
TAFCOE
TAF
KCOE 020520Z 0206/0306 19006KT P6SM FEW120
     FM021900 26009KT P6SM FEW080
     FM030200 10003KT P6SM SCT120
      AMD LTD TO CLD AND VIS=



000
FTUS46 KOTX 020520
TAFEAT
TAF
KEAT 020520Z 0206/0306 30012KT P6SM SCT150
     FM021400 29006KT P6SM SKC
     FM022200 11005KT P6SM FEW150=



000
FTUS46 KOTX 020520
TAFPUW
TAF
KPUW 020520Z 0206/0306 25005KT P6SM FEW150
     FM022300 33002KT P6SM SKC=



000
FTUS46 KOTX 012320
TAFGEG
TAF
KGEG 012320Z 0200/0224 24012G23KT P6SM BKN070 BKN150
     FM020200 22011KT P6SM FEW070 SCT150
     FM021200 24006KT P6SM FEW150
     FM021900 27008KT P6SM FEW080=



000
FTUS46 KOTX 012320
TAFCOE
TAF
KCOE 012320Z 0200/0224 23012G16KT P6SM FEW060 BKN080 BKN150
     FM020100 21008KT P6SM FEW080 SCT150
     FM020600 23005KT P6SM FEW150
     FM021900 26009KT P6SM FEW080
      AMD LTD TO CLD AND VIS=



000
FTUS46 KOTX 012320
TAFGEG
TAF
KGEG 012320Z 0200/0224 24012G23KT P6SM BKN070 BKN150
     FM020200 22011KT P6SM FEW070 SCT150
     FM021200 24006KT P6SM FEW150
     FM021900 27008KT P6SM FEW080=



000
FTUS46 KOTX 012320
TAFCOE
TAF
KCOE 012320Z 0200/0224 23012G16KT P6SM FEW060 BKN080 BKN150
     FM020100 21008KT P6SM FEW080 SCT150
     FM020600 23005KT P6SM FEW150
     FM021900 26009KT P6SM FEW080
      AMD LTD TO CLD AND VIS=



000
FTUS46 KOTX 012320
TAFSFF
TAF
KSFF 012320Z 0200/0224 24012G18KT P6SM BKN070 BKN150
     FM020100 23006KT P6SM FEW070 SCT150
     FM020600 25003KT P6SM FEW150
     FM021900 28004KT P6SM FEW080=



000
FTUS46 KOTX 012320
TAFSFF
TAF
KSFF 012320Z 0200/0224 24012G18KT P6SM BKN070 BKN150
     FM020100 23006KT P6SM FEW070 SCT150
     FM020600 25003KT P6SM FEW150
     FM021900 28004KT P6SM FEW080=



000
FTUS46 KOTX 012320
TAFPUW
TAF
KPUW 012320Z 0200/0224 24012G17KT P6SM FEW060 BKN150
     FM020200 22007KT P6SM SCT150
     FM020800 26005KT P6SM FEW010 FEW150
     FM021600 25008KT P6SM SKC=



000
FTUS46 KOTX 012320
TAFMWH
TAF
KMWH 012320Z 0200/0224 24012G18KT P6SM FEW200
     FM020100 24007KT P6SM FEW200
     FM021000 34006KT P6SM SKC=



000
FTUS46 KOTX 012320
TAFMWH
TAF
KMWH 012320Z 0200/0224 24012G18KT P6SM FEW200
     FM020100 24007KT P6SM FEW200
     FM021000 34006KT P6SM SKC=



000
FTUS46 KOTX 012320
TAFLWS
TAF
KLWS 012320Z 0200/0224 VRB04KT P6SM FEW080 SCT150
     FM020600 24003KT P6SM FEW200
     FM021600 31005KT P6SM SKC=



000
FTUS46 KOTX 012320
TAFPUW
TAF
KPUW 012320Z 0200/0224 24012G17KT P6SM FEW060 BKN150
     FM020200 22007KT P6SM SCT150
     FM020800 26005KT P6SM FEW010 FEW150
     FM021600 25008KT P6SM SKC=



000
FTUS46 KOTX 012320
TAFEAT
TAF
KEAT 012320Z 0200/0224 30016G22KT P6SM SCT200
     FM020300 30014KT P6SM SCT150
     FM021200 30008KT P6SM SKC
     FM021800 27004KT P6SM FEW150=



000
FTUS46 KOTX 012320
TAFLWS
TAF
KLWS 012320Z 0200/0224 VRB04KT P6SM FEW080 SCT150
     FM020600 24003KT P6SM FEW200
     FM021600 31005KT P6SM SKC=



000
FTUS46 KOTX 012320
TAFEAT
TAF
KEAT 012320Z 0200/0224 30016G22KT P6SM SCT200
     FM020300 30014KT P6SM SCT150
     FM021200 30008KT P6SM SKC
     FM021800 27004KT P6SM FEW150=



000
FTUS46 KOTX 012105 AAA
TAFMWH
TAF AMD
KMWH 012105Z 0121/0218 20011KT P6SM SCT200
     FM020200 25007KT P6SM SCT150
     FM021000 34006KT P6SM SKC=



000
FTUS46 KOTX 012105 AAA
TAFMWH
TAF AMD
KMWH 012105Z 0121/0218 20011KT P6SM SCT200
     FM020200 25007KT P6SM SCT150
     FM021000 34006KT P6SM SKC=



000
FTUS46 KOTX 012104 AAA
TAFLWS
TAF AMD
KLWS 012104Z 0121/0218 32005KT P6SM BKN090
     FM012200 27008G15KT P6SM FEW060 BKN200
     FM020200 17005KT P6SM SCT200
     FM021500 VRB04KT P6SM SKC=



000
FTUS46 KOTX 012104 AAA
TAFLWS
TAF AMD
KLWS 012104Z 0121/0218 32005KT P6SM BKN090
     FM012200 27008G15KT P6SM FEW060 BKN200
     FM020200 17005KT P6SM SCT200
     FM021500 VRB04KT P6SM SKC=



000
FTUS46 KOTX 012103 AAA
TAFCOE
TAF AMD
KCOE 012103Z 0121/0218 25012G16KT P6SM FEW040 SCT060 OVC080
     FM020200 21008KT P6SM FEW050 SCT150
     FM020600 23004KT P6SM FEW150
     FM021500 21006KT P6SM SKC
      AMD LTD TO CLD AND VIS=



000
FTUS46 KOTX 012103 AAA
TAFGEG
TAF AMD
KGEG 012103Z 0121/0218 25012G23KT P6SM BKN060 BKN080
     FM020200 22010KT P6SM FEW050 SCT150
     FM020600 24006KT P6SM FEW150
     FM021500 20004KT P6SM SKC=



000
FTUS46 KOTX 012103 AAA
TAFGEG
TAF AMD
KGEG 012103Z 0121/0218 25012G23KT P6SM BKN060 BKN080
     FM020200 22010KT P6SM FEW050 SCT150
     FM020600 24006KT P6SM FEW150
     FM021500 20004KT P6SM SKC=



000
FTUS46 KOTX 011720
TAFLWS
TAF
KLWS 011720Z 0118/0218 08006KT P6SM FEW070 SCT200
     FM012000 27008G15KT P6SM FEW060 BKN200
     FM020200 17005KT P6SM SCT200
     FM021500 VRB04KT P6SM SKC=



000
FTUS46 KOTX 011720
TAFLWS
TAF
KLWS 011720Z 0118/0218 08006KT P6SM FEW070 SCT200
     FM012000 27008G15KT P6SM FEW060 BKN200
     FM020200 17005KT P6SM SCT200
     FM021500 VRB04KT P6SM SKC=



000
FTUS46 KOTX 011720
TAFCOE
TAF
KCOE 011720Z 0118/0218 18011G16KT P6SM SCT060 BKN200
     FM020200 21008KT P6SM FEW050 SCT150
     FM020600 23004KT P6SM FEW150
     FM021500 21006KT P6SM SKC
      AMD LTD TO CLD AND VIS=



000
FTUS46 KOTX 011720
TAFEAT
TAF
KEAT 011720Z 0118/0218 30005KT P6SM SCT200
     FM012200 30016G22KT P6SM SCT200
     FM020300 30014KT P6SM SCT150
     FM021200 30008KT P6SM SKC=



000
FTUS46 KOTX 011720
TAFPUW
TAF
KPUW 011720Z 0118/0218 26009KT P6SM SCT060 BKN200
     FM012100 24011G17KT P6SM FEW050 BKN150
     FM020200 24007KT P6SM SCT050 SCT150
     FM020800 26007KT P6SM FEW010 FEW150
     FM021400 VRB03KT P6SM SKC=



000
FTUS46 KOTX 011720
TAFSFF
TAF
KSFF 011720Z 0118/0218 VRB03KT P6SM FEW060 SCT200
     FM012200 22010G16KT P6SM SCT060 BKN150
     FM020100 23006KT P6SM FEW060 SCT150
     FM020600 25003KT P6SM FEW150
     FM021300 VRB03KT P6SM SKC=



000
FTUS46 KOTX 011720
TAFGEG
TAF
KGEG 011720Z 0118/0218 18008KT P6SM FEW060 SCT200
     FM012200 22014G22KT P6SM SCT050 BKN150
     FM020200 22010KT P6SM FEW050 SCT150
     FM020600 24006KT P6SM FEW150
     FM021500 20004KT P6SM SKC=



000
FTUS46 KOTX 011720
TAFSFF
TAF
KSFF 011720Z 0118/0218 VRB03KT P6SM FEW060 SCT200
     FM012200 22010G16KT P6SM SCT060 BKN150
     FM020100 23006KT P6SM FEW060 SCT150
     FM020600 25003KT P6SM FEW150
     FM021300 VRB03KT P6SM SKC=



000
FTUS46 KOTX 011720
TAFPUW
TAF
KPUW 011720Z 0118/0218 26009KT P6SM SCT060 BKN200
     FM012100 24011G17KT P6SM FEW050 BKN150
     FM020200 24007KT P6SM SCT050 SCT150
     FM020800 26007KT P6SM FEW010 FEW150
     FM021400 VRB03KT P6SM SKC=



000
FTUS46 KOTX 011720
TAFCOE
TAF
KCOE 011720Z 0118/0218 18011G16KT P6SM SCT060 BKN200
     FM020200 21008KT P6SM FEW050 SCT150
     FM020600 23004KT P6SM FEW150
     FM021500 21006KT P6SM SKC
      AMD LTD TO CLD AND VIS=



000
FTUS46 KOTX 011720
TAFGEG
TAF
KGEG 011720Z 0118/0218 18008KT P6SM FEW060 SCT200
     FM012200 22014G22KT P6SM SCT050 BKN150
     FM020200 22010KT P6SM FEW050 SCT150
     FM020600 24006KT P6SM FEW150
     FM021500 20004KT P6SM SKC=



000
FTUS46 KOTX 011720
TAFEAT
TAF
KEAT 011720Z 0118/0218 30005KT P6SM SCT200
     FM012200 30016G22KT P6SM SCT200
     FM020300 30014KT P6SM SCT150
     FM021200 30008KT P6SM SKC=



000
FTUS46 KOTX 011720
TAFMWH
TAF
KMWH 011720Z 0118/0218 17003KT P6SM SCT200
     FM012100 22013KT P6SM SCT200
     FM020200 25007KT P6SM SCT150
     FM021000 34006KT P6SM SKC=



000
FTUS46 KOTX 011720
TAFMWH
TAF
KMWH 011720Z 0118/0218 17003KT P6SM SCT200
     FM012100 22013KT P6SM SCT200
     FM020200 25007KT P6SM SCT150
     FM021000 34006KT P6SM SKC=



000
FTUS46 KOTX 011301 AAA
TAFCOE
TAF AMD
KCOE 011301Z 0113/0212 18006KT P6SM VCFG OVC006
      TEMPO 0113/0117 SCT006
     FM011700 20007KT P6SM FEW050 SCT200
     FM012200 20010G16KT P6SM SCT050 BKN150
     FM020200 21005KT P6SM FEW050 BKN150
     FM020600 23004KT P6SM FEW150
      AMD LTD TO CLD AND VIS=



000
FTUS46 KOTX 011301 AAA
TAFCOE
TAF AMD
KCOE 011301Z 0113/0212 18006KT P6SM VCFG OVC006
      TEMPO 0113/0117 SCT006
     FM011700 20007KT P6SM FEW050 SCT200
     FM012200 20010G16KT P6SM SCT050 BKN150
     FM020200 21005KT P6SM FEW050 BKN150
     FM020600 23004KT P6SM FEW150
      AMD LTD TO CLD AND VIS=



000
FTUS46 KOTX 011138
TAFEAT
TAF
KEAT 011138Z 0112/0212 30007KT P6SM FEW200
     FM012100 30016G22KT P6SM SCT200
     FM020200 30014KT P6SM SCT150
     FM021000 30010KT P6SM FEW150=



000
FTUS46 KOTX 011138
TAFLWS
TAF
KLWS 011138Z 0112/0212 VRB04KT P6SM SKC
     FM011800 31007KT P6SM SCT050 SCT200
     FM020200 17005KT P6SM SCT200=



000
FTUS46 KOTX 011138
TAFPUW
TAF
KPUW 011138Z 0112/0212 25007KT P6SM SCT015
     FM012100 24011G17KT P6SM FEW040 BKN150
     FM020200 24007KT P6SM SCT050 BKN150
     FM020800 26007KT P6SM FEW010 SCT150=



000
FTUS46 KOTX 011138
TAFGEG
TAF
KGEG 011138Z 0112/0212 19007KT P6SM SCT015
     FM011700 21011KT P6SM FEW050 SCT200
     FM012200 22014G22KT P6SM SCT050 BKN150
     FM020200 22010KT P6SM FEW050 BKN150
     FM020600 24007KT P6SM FEW150=



000
FTUS46 KOTX 011138
TAFMWH
TAF
KMWH 011138Z 0112/0212 28004KT P6SM FEW200
     FM011900 22013KT P6SM SCT200
     FM020200 25007KT P6SM SCT150
     FM020700 30006KT P6SM FEW200=



000
FTUS46 KOTX 011138
TAFCOE
TAF
KCOE 011138Z 0112/0212 18006KT P6SM VCFG SCT012
     FM011700 20007KT P6SM FEW050 SCT200
     FM012200 20010G16KT P6SM SCT050 BKN150
     FM020200 21005KT P6SM FEW050 BKN150
     FM020600 23004KT P6SM FEW150
      AMD LTD TO CLD AND VIS=



000
FTUS46 KOTX 011138
TAFSFF
TAF
KSFF 011138Z 0112/0212 VRB03KT P6SM VCFG SCT015
     FM011700 21007KT P6SM FEW050 SCT200
     FM012200 22010G16KT P6SM SCT060 BKN150
     FM020100 23006KT P6SM FEW060 BKN150
     FM020600 25003KT P6SM FEW150=



000
FTUS46 KOTX 011138
TAFCOE
TAF
KCOE 011138Z 0112/0212 18006KT P6SM VCFG SCT012
     FM011700 20007KT P6SM FEW050 SCT200
     FM012200 20010G16KT P6SM SCT050 BKN150
     FM020200 21005KT P6SM FEW050 BKN150
     FM020600 23004KT P6SM FEW150
      AMD LTD TO CLD AND VIS=



000
FTUS46 KOTX 011138
TAFGEG
TAF
KGEG 011138Z 0112/0212 19007KT P6SM SCT015
     FM011700 21011KT P6SM FEW050 SCT200
     FM012200 22014G22KT P6SM SCT050 BKN150
     FM020200 22010KT P6SM FEW050 BKN150
     FM020600 24007KT P6SM FEW150=



000
FTUS46 KOTX 011138
TAFSFF
TAF
KSFF 011138Z 0112/0212 VRB03KT P6SM VCFG SCT015
     FM011700 21007KT P6SM FEW050 SCT200
     FM012200 22010G16KT P6SM SCT060 BKN150
     FM020100 23006KT P6SM FEW060 BKN150
     FM020600 25003KT P6SM FEW150=



000
FTUS46 KOTX 011138
TAFPUW
TAF
KPUW 011138Z 0112/0212 25007KT P6SM SCT015
     FM012100 24011G17KT P6SM FEW040 BKN150
     FM020200 24007KT P6SM SCT050 BKN150
     FM020800 26007KT P6SM FEW010 SCT150=



000
FTUS46 KOTX 011138
TAFLWS
TAF
KLWS 011138Z 0112/0212 VRB04KT P6SM SKC
     FM011800 31007KT P6SM SCT050 SCT200
     FM020200 17005KT P6SM SCT200=



000
FTUS46 KOTX 011138
TAFEAT
TAF
KEAT 011138Z 0112/0212 30007KT P6SM FEW200
     FM012100 30016G22KT P6SM SCT200
     FM020200 30014KT P6SM SCT150
     FM021000 30010KT P6SM FEW150=



000
FTUS46 KOTX 011138
TAFMWH
TAF
KMWH 011138Z 0112/0212 28004KT P6SM FEW200
     FM011900 22013KT P6SM SCT200
     FM020200 25007KT P6SM SCT150
     FM020700 30006KT P6SM FEW200=



000
FTUS46 KOTX 010520
TAFSFF
TAF
KSFF 010520Z 0106/0206 VRB02KT P6SM SKC
     FM011200 23004KT P6SM SCT015
     FM012000 22010G16KT P6SM FEW150
     FM020100 23006KT P6SM SKC=



000
FTUS46 KOTX 010520
TAFCOE
TAF
KCOE 010520Z 0106/0206 15006KT P6SM SKC
     FM011300 18004KT P6SM SCT012
     FM011900 20010G16KT P6SM FEW030 SCT150
     FM020200 21005KT P6SM SKC
      AMD LTD TO CLD AND VIS=



000
FTUS46 KOTX 010520
TAFMWH
TAF
KMWH 010520Z 0106/0206 31010KT P6SM SKC
     FM011200 32004KT P6SM FEW150
     FM011900 22013KT P6SM SKC
     FM020200 25007KT P6SM FEW200=



000
FTUS46 KOTX 010520
TAFLWS
TAF
KLWS 010520Z 0106/0206 24008KT P6SM SCT100
     FM010700 VRB04KT P6SM SKC
     FM011800 31007KT P6SM FEW150
     FM020200 17005KT P6SM SCT200=



000
FTUS46 KOTX 010520
TAFGEG
TAF
KGEG 010520Z 0106/0206 25007KT P6SM FEW080
     FM010900 21006KT P6SM SKC
     FM011200 19007KT P6SM SCT015
     FM011800 21011KT P6SM FEW150
     FM012100 22014G22KT P6SM FEW150
     FM020200 22010KT P6SM SKC=



000
FTUS46 KOTX 010520
TAFMWH
TAF
KMWH 010520Z 0106/0206 31010KT P6SM SKC
     FM011200 32004KT P6SM FEW150
     FM011900 22013KT P6SM SKC
     FM020200 25007KT P6SM FEW200=



000
FTUS46 KOTX 010520
TAFEAT
TAF
KEAT 010520Z 0106/0206 30014KT P6SM FEW200
     FM011000 30011KT P6SM FEW200
     FM012100 30016G22KT P6SM SKC
     FM020100 30014KT P6SM SCT150=



000
FTUS46 KOTX 010520
TAFEAT
TAF
KEAT 010520Z 0106/0206 30014KT P6SM FEW200
     FM011000 30011KT P6SM FEW200
     FM012100 30016G22KT P6SM SKC
     FM020100 30014KT P6SM SCT150=



000
FTUS46 KOTX 010520
TAFPUW
TAF
KPUW 010520Z 0106/0206 24004KT P6SM SCT100
     FM010900 25004KT P6SM SKC
     FM011200 25004KT P6SM SCT015
     FM011800 24012G18KT P6SM FEW030 SCT150
     FM020200 24005KT P6SM FEW200=



000
FTUS46 KOTX 010520
TAFPUW
TAF
KPUW 010520Z 0106/0206 24004KT P6SM SCT100
     FM010900 25004KT P6SM SKC
     FM011200 25004KT P6SM SCT015
     FM011800 24012G18KT P6SM FEW030 SCT150
     FM020200 24005KT P6SM FEW200=



000
FTUS46 KOTX 010520
TAFLWS
TAF
KLWS 010520Z 0106/0206 24008KT P6SM SCT100
     FM010700 VRB04KT P6SM SKC
     FM011800 31007KT P6SM FEW150
     FM020200 17005KT P6SM SCT200=



000
FTUS46 KOTX 302321
TAFMWH
TAF
KMWH 302321Z 0100/0124 28016G22KT P6SM FEW080
     FM010200 30010KT P6SM FEW100
     FM010600 28008KT P6SM SKC
     FM011200 22004KT P6SM FEW150
     FM011900 21009KT P6SM SKC=



000
FTUS46 KOTX 302321
TAFPUW
TAF
KPUW 302321Z 0100/0124 23016G21KT P6SM VCSH BKN060 BKN100
     FM010130 24009KT P6SM SCT070 SCT100
     FM010900 25004KT P6SM SKC
     FM011200 25004KT P6SM SCT015
     FM011800 24012G18KT P6SM FEW030 SCT150=



000
FTUS46 KOTX 302321
TAFGEG
TAF
KGEG 302321Z 0100/0124 24014G22KT P6SM -SHRA VCTS BKN060CB OVC080
      TEMPO 0100/0102 VRB20G30KT -TSRA
     FM010200 25010KT P6SM SCT070 BKN120
     FM010900 18007KT P6SM SKC
     FM011200 19007KT P6SM SCT015
     FM011900 22014G22KT P6SM FEW150=



000
FTUS46 KOTX 302321
TAFSFF
TAF
KSFF 302321Z 0100/0124 25011KT P6SM -SHRA VCTS BKN060CB OVC080
      TEMPO 0100/0102 VRB18G28KT -TSRA
     FM010200 28005KT P6SM SCT070 SCT120
     FM010800 VRB02KT P6SM SKC
     FM011200 23004KT P6SM SCT015
     FM012000 22010G16KT P6SM FEW150=



000
FTUS46 KOTX 302321
TAFCOE
TAF
KCOE 302321Z 0100/0124 21013G20KT P6SM -SHRA VCTS SCT030 BKN060CB
      TEMPO 0100/0102 VRB20G30KT P6SM -TSRA
     FM010200 20009KT P6SM SCT050 SCT080
     FM010400 VRB04KT P6SM SKC
     FM011300 18004KT P6SM SCT012
     FM011900 20010G16KT P6SM FEW030 SCT150
      AMD LTD TO CLD AND VIS=



000
FTUS46 KOTX 302321
TAFEAT
TAF
KEAT 302321Z 0100/0124 30020G30KT P6SM FEW080 SCT150
     FM010300 30014KT P6SM SKC
     FM010700 30007KT P6SM SKC
     FM011700 30012KT P6SM SKC
     FM012100 30016G22KT P6SM SKC=



000
FTUS46 KOTX 302321
TAFLWS
TAF
KLWS 302321Z 0100/0124 27012KT P6SM VCSH BKN080 BKN100
     FM010130 24008KT P6SM SCT070 SCT120
     FM010700 15004KT P6SM SKC
     FM011800 31007KT P6SM FEW150=



000
FTUS46 KOTX 302321
TAFGEG
TAF
KGEG 302321Z 0100/0124 24014G22KT P6SM -SHRA VCTS BKN060CB OVC080
      TEMPO 0100/0102 VRB20G30KT -TSRA
     FM010200 25010KT P6SM SCT070 BKN120
     FM010900 18007KT P6SM SKC
     FM011200 19007KT P6SM SCT015
     FM011900 22014G22KT P6SM FEW150=



000
FTUS46 KOTX 302321
TAFEAT
TAF
KEAT 302321Z 0100/0124 30020G30KT P6SM FEW080 SCT150
     FM010300 30014KT P6SM SKC
     FM010700 30007KT P6SM SKC
     FM011700 30012KT P6SM SKC
     FM012100 30016G22KT P6SM SKC=



000
FTUS46 KOTX 302321
TAFLWS
TAF
KLWS 302321Z 0100/0124 27012KT P6SM VCSH BKN080 BKN100
     FM010130 24008KT P6SM SCT070 SCT120
     FM010700 15004KT P6SM SKC
     FM011800 31007KT P6SM FEW150=



000
FTUS46 KOTX 302321
TAFCOE
TAF
KCOE 302321Z 0100/0124 21013G20KT P6SM -SHRA VCTS SCT030 BKN060CB
      TEMPO 0100/0102 VRB20G30KT P6SM -TSRA
     FM010200 20009KT P6SM SCT050 SCT080
     FM010400 VRB04KT P6SM SKC
     FM011300 18004KT P6SM SCT012
     FM011900 20010G16KT P6SM FEW030 SCT150
      AMD LTD TO CLD AND VIS=



000
FTUS46 KOTX 302321
TAFSFF
TAF
KSFF 302321Z 0100/0124 25011KT P6SM -SHRA VCTS BKN060CB OVC080
      TEMPO 0100/0102 VRB18G28KT -TSRA
     FM010200 28005KT P6SM SCT070 SCT120
     FM010800 VRB02KT P6SM SKC
     FM011200 23004KT P6SM SCT015
     FM012000 22010G16KT P6SM FEW150=



000
FTUS46 KOTX 302321
TAFMWH
TAF
KMWH 302321Z 0100/0124 28016G22KT P6SM FEW080
     FM010200 30010KT P6SM FEW100
     FM010600 28008KT P6SM SKC
     FM011200 22004KT P6SM FEW150
     FM011900 21009KT P6SM SKC=



000
FTUS46 KOTX 302321
TAFPUW
TAF
KPUW 302321Z 0100/0124 23016G21KT P6SM VCSH BKN060 BKN100
     FM010130 24009KT P6SM SCT070 SCT100
     FM010900 25004KT P6SM SKC
     FM011200 25004KT P6SM SCT015
     FM011800 24012G18KT P6SM FEW030 SCT150=



000
FTUS46 KOTX 301734
TAFLWS
TAF
KLWS 301734Z 3018/0118 28014G20KT P6SM SCT060
     FM302100 29012KT P6SM VCSH BKN060
     FM010130 24008KT P6SM SCT070 SCT120
     FM010700 VRB04KT P6SM SKC=



000
FTUS46 KOTX 301734
TAFSFF
TAF
KSFF 301734Z 3018/0118 23012KT P6SM SCT060
     FM302100 25011KT P6SM -SHRA BKN060
     FM010130 28005KT P6SM SCT070 SCT120
     FM010800 23004KT P6SM SKC=



000
FTUS46 KOTX 301734
TAFEAT
TAF
KEAT 301734Z 3018/0118 30014G22KT P6SM SKC
     FM302300 30020G30KT P6SM SKC
     FM010300 30014KT P6SM SKC
     FM010700 30007KT P6SM SKC=



000
FTUS46 KOTX 301734
TAFMWH
TAF
KMWH 301734Z 3018/0118 27011G17KT P6SM FEW080 SCT100
     FM010000 29012KT P6SM SKC
     FM010600 28008KT P6SM SKC
     FM011200 22004KT P6SM FEW150=



000
FTUS46 KOTX 301734
TAFGEG
TAF
KGEG 301734Z 3018/0118 23015G22KT P6SM SCT060
     FM302100 24014G22KT P6SM -SHRA BKN060
     FM010100 25010KT P6SM SCT070 SCT120
     FM010900 18007KT P6SM SKC=



000
FTUS46 KOTX 301734
TAFSFF
TAF
KSFF 301734Z 3018/0118 23012KT P6SM SCT060
     FM302100 25011KT P6SM -SHRA BKN060
     FM010130 28005KT P6SM SCT070 SCT120
     FM010800 23004KT P6SM SKC=



000
FTUS46 KOTX 301734
TAFPUW
TAF
KPUW 301734Z 3018/0118 25017G22KT P6SM SCT050 BKN080
     FM302100 25016G21KT P6SM VCSH BKN060 BKN100
     FM010130 24009KT P6SM SCT070 SCT100
     FM010900 25005KT P6SM SKC=



000
FTUS46 KOTX 301734
TAFCOE
TAF
KCOE 301734Z 3018/0118 20012KT P6SM SCT030 BKN060
     FM302030 21013G20KT P6SM -SHRA BKN045 BKN070
     FM010130 22009KT P6SM SCT050 SCT080
     FM010400 VRB04KT P6SM SKC
     FM011300 18004KT P6SM SCT012
      AMD LTD TO CLD AND VIS=



000
FTUS46 KOTX 301734
TAFGEG
TAF
KGEG 301734Z 3018/0118 23015G22KT P6SM SCT060
     FM302100 24014G22KT P6SM -SHRA BKN060
     FM010100 25010KT P6SM SCT070 SCT120
     FM010900 18007KT P6SM SKC=



000
FTUS46 KOTX 301734
TAFEAT
TAF
KEAT 301734Z 3018/0118 30014G22KT P6SM SKC
     FM302300 30020G30KT P6SM SKC
     FM010300 30014KT P6SM SKC
     FM010700 30007KT P6SM SKC=



000
FTUS46 KOTX 301734
TAFLWS
TAF
KLWS 301734Z 3018/0118 28014G20KT P6SM SCT060
     FM302100 29012KT P6SM VCSH BKN060
     FM010130 24008KT P6SM SCT070 SCT120
     FM010700 VRB04KT P6SM SKC=



000
FTUS46 KOTX 301734
TAFCOE
TAF
KCOE 301734Z 3018/0118 20012KT P6SM SCT030 BKN060
     FM302030 21013G20KT P6SM -SHRA BKN045 BKN070
     FM010130 22009KT P6SM SCT050 SCT080
     FM010400 VRB04KT P6SM SKC
     FM011300 18004KT P6SM SCT012
      AMD LTD TO CLD AND VIS=



000
FTUS46 KOTX 301734
TAFMWH
TAF
KMWH 301734Z 3018/0118 27011G17KT P6SM FEW080 SCT100
     FM010000 29012KT P6SM SKC
     FM010600 28008KT P6SM SKC
     FM011200 22004KT P6SM FEW150=



000
FTUS46 KOTX 301734
TAFPUW
TAF
KPUW 301734Z 3018/0118 25017G22KT P6SM SCT050 BKN080
     FM302100 25016G21KT P6SM VCSH BKN060 BKN100
     FM010130 24009KT P6SM SCT070 SCT100
     FM010900 25005KT P6SM SKC=



000
FTUS46 KOTX 301658 AAB
TAFCOE
TAF AMD
KCOE 301658Z 3017/0112 19010KT P6SM SCT030 BKN080
     FM301800 22014G20KT P6SM FEW030 BKN060
     FM302030 21013G20KT P6SM -SHRA BKN045 BKN070
     FM010000 22009KT P6SM SCT050 SCT080
      AMD LTD TO CLD AND VIS=



000
FTUS46 KOTX 301658 AAB
TAFCOE
TAF AMD
KCOE 301658Z 3017/0112 19010KT P6SM SCT030 BKN080
     FM301800 22014G20KT P6SM FEW030 BKN060
     FM302030 21013G20KT P6SM -SHRA BKN045 BKN070
     FM010000 22009KT P6SM SCT050 SCT080
      AMD LTD TO CLD AND VIS=



000
FTUS46 KOTX 301620 AAA
TAFPUW
TAF AMD
KPUW 301620Z 3016/0112 24015G21KT P6SM SCT050 SCT080
     FM301700 24018G25KT P6SM -SHRA BKN050 BKN080
     FM301800 25020G26KT P6SM SCT050 BKN080
     FM302100 25016G21KT P6SM VCSH BKN060 BKN100
     FM010130 24009KT P6SM SCT070 SCT100
     FM010900 25005KT P6SM FEW100=



000
FTUS46 KOTX 301614 AAA
TAFGEG
TAF AMD
KGEG 301614Z 3016/0112 21013KT P6SM FEW025 SCT060 SCT080
     FM301800 23015G22KT P6SM SCT060
     FM302100 24014G22KT P6SM -SHRA BKN070
     FM010100 25010KT P6SM SCT070 SCT120
     FM010900 18007KT P6SM SKC=



000
FTUS46 KOTX 301607 CCA
TAFEAT
TAF COR
KEAT 301607Z 3016/0112 29008KT P6SM FEW050
     FM301700 30014G22KT P6SM SKC
     FM302300 30020G30KT P6SM SKC
     FM010300 30014KT P6SM SKC
     FM010700 30007KT P6SM SKC=



000
FTUS46 KOTX 301607 CCA
TAFEAT
TAF COR
KEAT 301607Z 3016/0112 29008KT P6SM FEW050
     FM301700 30014G22KT P6SM SKC
     FM302300 30020G30KT P6SM SKC
     FM010300 30014KT P6SM SKC
     FM010700 30007KT P6SM SKC=



000
FTUS46 KOTX 301606 AAA
TAFCOE
TAF AMD
KCOE 301606Z 3016/0112 19010KT P6SM -SHRA SCT025 BKN030 OVC060
     FM301800 22014G20KT P6SM FEW030 BKN060
     FM302030 21013G20KT P6SM -SHRA BKN045 BKN070
     FM010000 22009KT P6SM SCT050 SCT080
      AMD LTD TO CLD AND VIS=



000
FTUS46 KOTX 301606 AAA
TAFCOE
TAF AMD
KCOE 301606Z 3016/0112 19010KT P6SM -SHRA SCT025 BKN030 OVC060
     FM301800 22014G20KT P6SM FEW030 BKN060
     FM302030 21013G20KT P6SM -SHRA BKN045 BKN070
     FM010000 22009KT P6SM SCT050 SCT080
      AMD LTD TO CLD AND VIS=



000
FTUS46 KOTX 301602 AAA
TAFEAT
TAF AMD
KEAT 301602Z 3016/0112 30014KT P6SM FEW050
     FM301700 30014G22KT P6SM SKC
     FM302300 30020G30KT P6SM SKC
     FM010300 30014KT P6SM SKC
     FM010700 30007KT P6SM SKC=



000
FTUS46 KOTX 301602 AAA
TAFEAT
TAF AMD
KEAT 301602Z 3016/0112 30014KT P6SM FEW050
     FM301700 30014G22KT P6SM SKC
     FM302300 30020G30KT P6SM SKC
     FM010300 30014KT P6SM SKC
     FM010700 30007KT P6SM SKC=



000
FTUS46 KOTX 301556 AAA
TAFLWS
TAF AMD
KLWS 301556Z 3016/0112 17008KT P6SM VCSH SCT060
     FM301800 28014G20KT P6SM VCSH SCT050 SCT080
     FM010100 24008KT P6SM SCT050 SCT100
     FM010800 23004KT P6SM FEW100=



000
FTUS46 KOTX 301556 AAA
TAFLWS
TAF AMD
KLWS 301556Z 3016/0112 17008KT P6SM VCSH SCT060
     FM301800 28014G20KT P6SM VCSH SCT050 SCT080
     FM010100 24008KT P6SM SCT050 SCT100
     FM010800 23004KT P6SM FEW100=



000
FTUS46 KOTX 301120
TAFCOE
TAF
KCOE 301120Z 3012/0112 21011KT P6SM -SHRA SCT025 BKN040 OVC060
     FM301800 22016G22KT P6SM VCSH SCT035 BKN060 BKN100
     FM010000 22009KT P6SM SCT050 SCT080
      AMD LTD TO CLD AND VIS=



000
FTUS46 KOTX 301120
TAFLWS
TAF
KLWS 301120Z 3012/0112 24009KT P6SM VCSH SCT040 BKN060
     FM301400 28012KT P6SM SCT050 BKN070
     FM301800 28014G20KT P6SM SCT040 BKN060
     FM010100 24008KT P6SM SCT050 SCT100
     FM010800 23004KT P6SM FEW100=



000
FTUS46 KOTX 301120
TAFEAT
TAF
KEAT 301120Z 3012/0112 30014KT P6SM FEW060 SCT200
     FM301300 30014G22KT P6SM FEW200
     FM301600 30020G30KT P6SM FEW200
     FM010300 30014KT P6SM SKC=



000
FTUS46 KOTX 301120
TAFSFF
TAF
KSFF 301120Z 3012/0112 22012KT P6SM -SHRA BKN040 OVC060
     FM302200 25008KT P6SM VCSH BKN050 OVC070
     FM010200 28003KT P6SM SCT060 SCT100
     FM010800 21007KT P6SM FEW100=



000
FTUS46 KOTX 301120
TAFPUW
TAF
KPUW 301120Z 3012/0112 24012KT P6SM VCSH SCT025 BKN050 OVC070
     FM301600 25016G22KT P6SM FEW030 SCT050 BKN070
     FM010200 24009KT P6SM SCT070 SCT100
     FM011000 25005KT P6SM FEW100=



000
FTUS46 KOTX 301120
TAFMWH
TAF
KMWH 301120Z 3012/0112 25008KT P6SM FEW060 SCT100
     FM301700 27014G20KT P6SM FEW080 SCT100
     FM010200 30011KT P6SM SCT120
     FM010800 30010KT P6SM FEW120=



000
FTUS46 KOTX 301120
TAFGEG
TAF
KGEG 301120Z 3012/0112 22014G22KT P6SM -SHRA BKN040 OVC060
     FM302200 25012KT P6SM VCSH BKN050 OVC080
     FM010200 24008KT P6SM SCT050 SCT100
     FM011000 21007KT P6SM FEW100=



000
FTUS46 KOTX 301120
TAFLWS
TAF
KLWS 301120Z 3012/0112 24009KT P6SM VCSH SCT040 BKN060
     FM301400 28012KT P6SM SCT050 BKN070
     FM301800 28014G20KT P6SM SCT040 BKN060
     FM010100 24008KT P6SM SCT050 SCT100
     FM010800 23004KT P6SM FEW100=



000
FTUS46 KOTX 301120
TAFEAT
TAF
KEAT 301120Z 3012/0112 30014KT P6SM FEW060 SCT200
     FM301300 30014G22KT P6SM FEW200
     FM301600 30020G30KT P6SM FEW200
     FM010300 30014KT P6SM SKC=



000
FTUS46 KOTX 301120
TAFMWH
TAF
KMWH 301120Z 3012/0112 25008KT P6SM FEW060 SCT100
     FM301700 27014G20KT P6SM FEW080 SCT100
     FM010200 30011KT P6SM SCT120
     FM010800 30010KT P6SM FEW120=



000
FTUS46 KOTX 300800 AAB
TAFPUW
TAF AMD
KPUW 300800Z 3008/0106 23015KT 6SM SHRA BKN009 BKN019 OVC060
     FM301100 24012KT P6SM VCSH SCT025 BKN050 OVC070
     FM301600 25016G22KT P6SM FEW030 SCT050 BKN070
     FM010200 24009KT P6SM SCT070 SCT100=



000
FTUS46 KOTX 300800 AAB
TAFPUW
TAF AMD
KPUW 300800Z 3008/0106 23015KT 6SM SHRA BKN009 BKN019 OVC060
     FM301100 24012KT P6SM VCSH SCT025 BKN050 OVC070
     FM301600 25016G22KT P6SM FEW030 SCT050 BKN070
     FM010200 24009KT P6SM SCT070 SCT100=



000
FTUS46 KOTX 300717 AAA
TAFPUW
TAF AMD
KPUW 300717Z 3007/0106 23015KT 6SM SHRA BKN050 BKN070 OVC100
     FM301100 24012KT P6SM VCSH SCT025 BKN050 OVC070
     FM301600 25016G22KT P6SM FEW030 SCT050 BKN070
     FM010200 24009KT P6SM SCT070 SCT100=



000
FTUS46 KOTX 300717 AAA
TAFPUW
TAF AMD
KPUW 300717Z 3007/0106 23015KT 6SM SHRA BKN050 BKN070 OVC100
     FM301100 24012KT P6SM VCSH SCT025 BKN050 OVC070
     FM301600 25016G22KT P6SM FEW030 SCT050 BKN070
     FM010200 24009KT P6SM SCT070 SCT100=



000
FTUS46 KOTX 300520
TAFSFF
TAF
KSFF 300520Z 3006/0106 22009KT P6SM SCT040 BKN080
     FM300800 22012KT P6SM -SHRA BKN040 OVC060
     FM302200 25008KT P6SM VCSH BKN050 OVC070
     FM010200 28003KT P6SM SCT060 SCT100=



000
FTUS46 KOTX 300520
TAFCOE
TAF
KCOE 300520Z 3006/0106 18011KT P6SM SCT040 BKN080 OVC100
     FM300900 21011KT P6SM -SHRA SCT025 BKN040 OVC060
     FM301800 22016G22KT P6SM VCSH SCT035 BKN060 BKN100
     FM010000 22009KT P6SM SCT050 SCT080
      AMD LTD TO CLD AND VIS=



000
FTUS46 KOTX 300520
TAFGEG
TAF
KGEG 300520Z 3006/0106 21014KT P6SM SCT060 BKN080 OVC100
     FM300800 22014G22KT P6SM -SHRA BKN040 OVC060
     FM302200 25012KT P6SM VCSH BKN050 OVC080
     FM010200 24008KT P6SM SCT050 SCT100=



000
FTUS46 KOTX 300520
TAFPUW
TAF
KPUW 300520Z 3006/0106 19011KT P6SM BKN070 OVC100
     FM300800 23015KT P6SM -SHRA BKN050 BKN070 OVC100
     FM301100 24012KT P6SM VCSH SCT025 BKN050 OVC070
     FM301600 25016G22KT P6SM FEW030 SCT050 BKN070
     FM010200 24009KT P6SM SCT070 SCT100=



000
FTUS46 KOTX 300520
TAFLWS
TAF
KLWS 300520Z 3006/0106 12009KT P6SM BKN060 BKN100
     FM300800 24009KT P6SM VCSH SCT040 BKN060
     FM301400 28012KT P6SM SCT050 BKN070
     FM301800 28014G20KT P6SM SCT040 BKN060
     FM010100 24008KT P6SM SCT050 SCT100=



000
FTUS46 KOTX 300520
TAFEAT
TAF
KEAT 300520Z 3006/0106 30014KT P6SM FEW060 SCT200
     FM301300 30014G22KT P6SM FEW200
     FM301600 30020G30KT P6SM FEW200
     FM010300 30014KT P6SM SKC=



000
FTUS46 KOTX 300520
TAFMWH
TAF
KMWH 300520Z 3006/0106 24012KT P6SM SCT060 BKN100
     FM301000 25008KT P6SM FEW060 SCT100
     FM301700 27014G20KT P6SM FEW080 SCT100
     FM010200 30011KT P6SM SCT120=



000
FTUS46 KOTX 300520
TAFMWH
TAF
KMWH 300520Z 3006/0106 24012KT P6SM SCT060 BKN100
     FM301000 25008KT P6SM FEW060 SCT100
     FM301700 27014G20KT P6SM FEW080 SCT100
     FM010200 30011KT P6SM SCT120=



000
FTUS46 KOTX 300520
TAFEAT
TAF
KEAT 300520Z 3006/0106 30014KT P6SM FEW060 SCT200
     FM301300 30014G22KT P6SM FEW200
     FM301600 30020G30KT P6SM FEW200
     FM010300 30014KT P6SM SKC=



000
FTUS46 KOTX 300520
TAFLWS
TAF
KLWS 300520Z 3006/0106 12009KT P6SM BKN060 BKN100
     FM300800 24009KT P6SM VCSH SCT040 BKN060
     FM301400 28012KT P6SM SCT050 BKN070
     FM301800 28014G20KT P6SM SCT040 BKN060
     FM010100 24008KT P6SM SCT050 SCT100=



000
FTUS46 KOTX 300520
TAFPUW
TAF
KPUW 300520Z 3006/0106 19011KT P6SM BKN070 OVC100
     FM300800 23015KT P6SM -SHRA BKN050 BKN070 OVC100
     FM301100 24012KT P6SM VCSH SCT025 BKN050 OVC070
     FM301600 25016G22KT P6SM FEW030 SCT050 BKN070
     FM010200 24009KT P6SM SCT070 SCT100=



000
FTUS46 KOTX 300520
TAFCOE
TAF
KCOE 300520Z 3006/0106 18011KT P6SM SCT040 BKN080 OVC100
     FM300900 21011KT P6SM -SHRA SCT025 BKN040 OVC060
     FM301800 22016G22KT P6SM VCSH SCT035 BKN060 BKN100
     FM010000 22009KT P6SM SCT050 SCT080
      AMD LTD TO CLD AND VIS=



000
FTUS46 KOTX 292321
TAFSFF
TAF
KSFF 292321Z 3000/3024 19007KT P6SM SCT070 BKN120
     FM300300 22009KT P6SM SCT040 SCT080
     FM301400 22010KT P6SM VCSH BKN040 OVC060
     FM302200 25008KT P6SM -SHRA BKN050 OVC070=



000
FTUS46 KOTX 292321
TAFGEG
TAF
KGEG 292321Z 3000/3024 19010KT P6SM SCT060 BKN120
     FM300300 22016KT P6SM SCT040 SCT080
     FM301400 22014G20KT P6SM VCSH BKN040 OVC060
     FM302200 25012KT P6SM -SHRA BKN040 OVC070=



000
FTUS46 KOTX 292321
TAFMWH
TAF
KMWH 292321Z 3000/3024 23012KT P6SM SCT100 SCT200
     FM301000 25008KT P6SM SCT100
     FM301700 27012G20KT P6SM FEW080 SCT100=



000
FTUS46 KOTX 292321
TAFLWS
TAF
KLWS 292321Z 3000/3024 17011KT P6SM FEW070 BKN120
     FM300500 24012KT P6SM BKN060 BKN100
     FM301000 24005KT P6SM VCSH SCT040 BKN060
     FM301400 28014KT P6SM SCT050 BKN070=



000
FTUS46 KOTX 292321
TAFPUW
TAF
KPUW 292321Z 3000/3024 17011KT P6SM FEW060 SCT120
     FM300600 23012G24KT P6SM VCSH BKN050 BKN070 OVC120
     FM301100 24012KT P6SM VCSH SCT025 BKN050 OVC070
     FM301700 25016G22KT P6SM FEW030 SCT050 BKN070=



000
FTUS46 KOTX 292321
TAFEAT
TAF
KEAT 292321Z 3000/3024 30020G30KT P6SM SCT100 BKN250
     FM300500 30012KT P6SM SCT200
     FM301500 30014G22KT P6SM FEW200
     FM301800 30018G28KT P6SM FEW200=



000
FTUS46 KOTX 292321
TAFCOE
TAF
KCOE 292321Z 3000/3024 18008KT P6SM BKN070 OVC090
     FM300600 20011KT P6SM SCT040 BKN060 OVC100
     FM301400 22011KT P6SM -SHRA SCT025 OVC040
      AMD LTD TO CLD AND VIS=



000
FTUS46 KOTX 292321
TAFGEG
TAF
KGEG 292321Z 3000/3024 19010KT P6SM SCT060 BKN120
     FM300300 22016KT P6SM SCT040 SCT080
     FM301400 22014G20KT P6SM VCSH BKN040 OVC060
     FM302200 25012KT P6SM -SHRA BKN040 OVC070=



000
FTUS46 KOTX 292321
TAFMWH
TAF
KMWH 292321Z 3000/3024 23012KT P6SM SCT100 SCT200
     FM301000 25008KT P6SM SCT100
     FM301700 27012G20KT P6SM FEW080 SCT100=



000
FTUS46 KOTX 292321
TAFCOE
TAF
KCOE 292321Z 3000/3024 18008KT P6SM BKN070 OVC090
     FM300600 20011KT P6SM SCT040 BKN060 OVC100
     FM301400 22011KT P6SM -SHRA SCT025 OVC040
      AMD LTD TO CLD AND VIS=



000
FTUS46 KOTX 292321
TAFLWS
TAF
KLWS 292321Z 3000/3024 17011KT P6SM FEW070 BKN120
     FM300500 24012KT P6SM BKN060 BKN100
     FM301000 24005KT P6SM VCSH SCT040 BKN060
     FM301400 28014KT P6SM SCT050 BKN070=



000
FTUS46 KOTX 292321
TAFEAT
TAF
KEAT 292321Z 3000/3024 30020G30KT P6SM SCT100 BKN250
     FM300500 30012KT P6SM SCT200
     FM301500 30014G22KT P6SM FEW200
     FM301800 30018G28KT P6SM FEW200=



000
FTUS46 KOTX 292321
TAFSFF
TAF
KSFF 292321Z 3000/3024 19007KT P6SM SCT070 BKN120
     FM300300 22009KT P6SM SCT040 SCT080
     FM301400 22010KT P6SM VCSH BKN040 OVC060
     FM302200 25008KT P6SM -SHRA BKN050 OVC070=



000
FTUS46 KOTX 292321
TAFPUW
TAF
KPUW 292321Z 3000/3024 17011KT P6SM FEW060 SCT120
     FM300600 23012G24KT P6SM VCSH BKN050 BKN070 OVC120
     FM301100 24012KT P6SM VCSH SCT025 BKN050 OVC070
     FM301700 25016G22KT P6SM FEW030 SCT050 BKN070=



000
FTUS46 KOTX 291740
TAFGEG
TAF
KGEG 291740Z 2918/3018 14006KT P6SM BKN080 OVC120
     FM292000 20010KT P6SM FEW070 BKN120
     FM300300 22014KT P6SM SCT040 SCT080
     FM301400 22013KT P6SM VCSH BKN040 OVC060=



000
FTUS46 KOTX 291740
TAFEAT
TAF
KEAT 291740Z 2918/3018 28006KT P6SM FEW250
     FM292300 30020G30KT P6SM SCT100 BKN250
     FM300500 30012KT P6SM SCT200
     FM301500 30014G22KT P6SM FEW200=



000
FTUS46 KOTX 291740
TAFMWH
TAF
KMWH 291740Z 2918/3018 22007KT P6SM FEW250
     FM292300 23012KT P6SM SCT100 SCT200
     FM300200 25012KT P6SM SCT100=



000
FTUS46 KOTX 291740
TAFPUW
TAF
KPUW 291740Z 2918/3018 24009KT P6SM VCSH SCT060 OVC080
     FM292200 23011KT P6SM FEW060 SCT250
     FM300600 23012G24KT P6SM VCSH BKN050 BKN070 OVC120=



000
FTUS46 KOTX 291740
TAFSFF
TAF
KSFF 291740Z 2918/3018 10007KT P6SM BKN080 OVC120
     FM292000 21007KT P6SM SCT080 BKN120
     FM300300 22009KT P6SM SCT040 SCT080
     FM301400 22010KT P6SM VCSH BKN040 OVC060=



000
FTUS46 KOTX 291740
TAFCOE
TAF
KCOE 291740Z 2918/3018 10007KT P6SM SCT080 OVC100
     FM292030 18008KT P6SM BKN070 OVC100
     FM300000 18008KT P6SM FEW070 SCT250
     FM300600 20012KT P6SM SCT040 BKN060 OVC100
     FM301400 22009KT P6SM -SHRA SCT025 OVC040
      AMD LTD TO CLD AND VIS=



000
FTUS46 KOTX 291740
TAFLWS
TAF
KLWS 291740Z 2918/3018 VRB04KT P6SM VCSH BKN060 OVC080
     FM292200 VRB04KT P6SM FEW070 SCT250
     FM300500 24009KT P6SM BKN060 BKN100=



000
FTUS46 KOTX 291740
TAFPUW
TAF
KPUW 291740Z 2918/3018 24009KT P6SM VCSH SCT060 OVC080
     FM292200 23011KT P6SM FEW060 SCT250
     FM300600 23012G24KT P6SM VCSH BKN050 BKN070 OVC120=



000
FTUS46 KOTX 291740
TAFLWS
TAF
KLWS 291740Z 2918/3018 VRB04KT P6SM VCSH BKN060 OVC080
     FM292200 VRB04KT P6SM FEW070 SCT250
     FM300500 24009KT P6SM BKN060 BKN100=



000
FTUS46 KOTX 291740
TAFMWH
TAF
KMWH 291740Z 2918/3018 22007KT P6SM FEW250
     FM292300 23012KT P6SM SCT100 SCT200
     FM300200 25012KT P6SM SCT100=



000
FTUS46 KOTX 291740
TAFCOE
TAF
KCOE 291740Z 2918/3018 10007KT P6SM SCT080 OVC100
     FM292030 18008KT P6SM BKN070 OVC100
     FM300000 18008KT P6SM FEW070 SCT250
     FM300600 20012KT P6SM SCT040 BKN060 OVC100
     FM301400 22009KT P6SM -SHRA SCT025 OVC040
      AMD LTD TO CLD AND VIS=



000
FTUS46 KOTX 291740
TAFEAT
TAF
KEAT 291740Z 2918/3018 28006KT P6SM FEW250
     FM292300 30020G30KT P6SM SCT100 BKN250
     FM300500 30012KT P6SM SCT200
     FM301500 30014G22KT P6SM FEW200=



000
FTUS46 KOTX 291740
TAFGEG
TAF
KGEG 291740Z 2918/3018 14006KT P6SM BKN080 OVC120
     FM292000 20010KT P6SM FEW070 BKN120
     FM300300 22014KT P6SM SCT040 SCT080
     FM301400 22013KT P6SM VCSH BKN040 OVC060=



000
FTUS46 KOTX 291740
TAFSFF
TAF
KSFF 291740Z 2918/3018 10007KT P6SM BKN080 OVC120
     FM292000 21007KT P6SM SCT080 BKN120
     FM300300 22009KT P6SM SCT040 SCT080
     FM301400 22010KT P6SM VCSH BKN040 OVC060=



    US Dept of Commerce
    National Oceanic and Atmospheric Administration
    National Weather Service
    1325 East West Highway
    Silver Spring, MD 20910
    Page Author: NWS Internet Services Team
Disclaimer
Information Quality
Credits
Glossary
Privacy Policy
Freedom of Information Act (FOIA)
About Us
Career Opportunities